CheckWX is a tool to help pilots better visualize weather data.  It is not intended as a substitute for an official pre-flight weather briefing.

21:39:10 UTC

LIPA TAF
Aviano Air Base Airport
Aviano, Italy
TAF LIPA 202000Z 2021/2106 07003KT CAVOK

Mar-20@
21:00 UTC

Mar-20 @ 21:00 UTC

Mar-21@
06:00 UTC

Mar-21 @ 06:00 UTC

TAF LIPA 202000Z 2021/2106 07003KT CAVOK
Wind
  • 070° at 3 KTS
Conditions
No significant weather
Cloud Levels
  • No significant clouds